createdAt,value
2022-09-22T00:01:33.554Z,48.42
2022-09-22T00:04:07.274Z,48.42
2022-09-22T00:06:39.765Z,48.31
2022-09-22T00:09:12.041Z,48.69
2022-09-22T00:11:58.004Z,48.37
2022-09-22T00:14:28.309Z,48.78
2022-09-22T00:17:01.165Z,48.70
2022-09-22T00:19:35.079Z,48.94
2022-09-22T00:22:04.181Z,48.47
2022-09-22T00:24:32.306Z,48.70
2022-09-22T00:27:00.489Z,49.03
2022-09-22T00:29:30.263Z,49.09
2022-09-22T00:31:59.612Z,48.83
2022-09-22T00:34:30.164Z,48.67
2022-09-22T00:36:57.867Z,48.76
2022-09-22T00:39:27.266Z,49.06
2022-09-22T00:41:55.061Z,48.89
2022-09-22T00:44:34.084Z,48.78
2022-09-22T00:47:36.536Z,49.06
2022-09-22T00:50:18.361Z,49.15
2022-09-22T00:53:10.952Z,49.30
2022-09-22T00:55:52.524Z,49.06
2022-09-22T00:58:41.132Z,49.11
2022-09-22T01:01:09.564Z,49.14
2022-09-22T01:03:39.285Z,48.90
2022-09-22T01:06:11.343Z,49.11
2022-09-22T01:08:40.386Z,49.30
2022-09-22T01:11:08.584Z,49.36
2022-09-22T01:13:42.078Z,49.74
2022-09-22T01:16:36.570Z,49.40
2022-09-22T01:19:49.548Z,49.62
2022-09-22T01:22:36.511Z,49.72
2022-09-22T01:25:42.328Z,49.56
2022-09-22T01:29:07.432Z,49.45
2022-09-22T01:31:50.717Z,49.90
2022-09-22T01:34:38.212Z,49.76
2022-09-22T01:37:37.341Z,49.57
2022-09-22T01:40:17.436Z,49.73
2022-09-22T01:42:58.993Z,49.78
2022-09-22T01:45:31.111Z,49.62
2022-09-22T01:48:30.897Z,49.61
2022-09-22T01:51:04.492Z,49.59
2022-09-22T01:53:42.903Z,49.36
2022-09-22T01:56:14.192Z,49.64
2022-09-22T01:58:58.110Z,49.65
2022-09-22T02:01:52.220Z,49.92
2022-09-22T02:04:36.261Z,49.87
2022-09-22T02:07:14.331Z,50.05
2022-09-22T02:09:43.755Z,50.33
2022-09-22T02:12:11.562Z,50.50
2022-09-22T02:14:39.430Z,50.45
2022-09-22T02:17:08.954Z,50.22
2022-09-22T02:19:39.978Z,50.00
2022-09-22T02:22:10.535Z,49.90
2022-09-22T02:24:44.762Z,50.15
2022-09-22T02:27:26.907Z,50.33
2022-09-22T02:30:04.270Z,50.23
2022-09-22T02:32:34.210Z,50.23
2022-09-22T02:35:02.342Z,50.11
2022-09-22T02:37:58.090Z,50.01
2022-09-22T02:40:30.940Z,50.19
2022-09-22T02:42:58.578Z,50.00
2022-09-22T02:45:33.071Z,50.15
2022-09-22T02:48:18.408Z,50.15
2022-09-22T02:50:46.160Z,50.00
2022-09-22T02:53:17.313Z,50.23
2022-09-22T02:55:46.156Z,50.53
2022-09-22T02:58:17.276Z,50.25
2022-09-22T03:00:45.612Z,50.66
2022-09-22T03:03:13.468Z,50.62
2022-09-22T03:05:41.243Z,50.33
2022-09-22T03:08:09.124Z,50.35
2022-09-22T03:10:36.955Z,50.25
2022-09-22T03:13:20.221Z,50.49
2022-09-22T03:15:49.075Z,50.59
2022-09-22T03:18:17.239Z,50.15
2022-09-22T03:20:45.713Z,50.57
2022-09-22T03:23:13.476Z,50.54
2022-09-22T03:25:41.233Z,50.67
2022-09-22T03:28:09.189Z,50.79
2022-09-22T03:30:37.402Z,50.47
2022-09-22T03:33:05.178Z,50.89
2022-09-22T03:35:32.943Z,50.61
2022-09-22T03:38:00.699Z,50.95
2022-09-22T03:40:28.560Z,50.62
2022-09-22T03:42:56.386Z,50.52
2022-09-22T03:45:24.945Z,50.77
2022-09-22T03:47:54.064Z,50.93
2022-09-22T03:50:21.935Z,51.00
2022-09-22T03:52:49.849Z,50.63
2022-09-22T03:55:17.649Z,50.75
2022-09-22T03:57:45.582Z,50.90
2022-09-22T04:00:14.196Z,51.17
2022-09-22T04:02:42.075Z,50.87
2022-09-22T04:05:11.168Z,50.55
2022-09-22T04:07:39.079Z,51.13
2022-09-22T04:10:07.820Z,50.72
2022-09-22T04:12:37.238Z,51.01
2022-09-22T04:15:06.310Z,51.14
2022-09-22T04:17:34.054Z,51.17
2022-09-22T04:20:02.234Z,50.92
2022-09-22T04:22:30.062Z,50.92
2022-09-22T04:24:57.885Z,51.18
2022-09-22T04:27:25.858Z,50.90
2022-09-22T04:29:53.827Z,51.15
2022-09-22T04:32:21.607Z,51.09
2022-09-22T04:34:49.793Z,51.11
2022-09-22T04:37:17.601Z,50.85
2022-09-22T04:39:45.347Z,50.89
2022-09-22T04:42:13.096Z,50.87
2022-09-22T04:44:40.885Z,51.04
2022-09-22T04:47:08.680Z,50.80
2022-09-22T04:49:36.446Z,50.90
2022-09-22T04:52:04.514Z,50.82
2022-09-22T04:54:32.561Z,50.95
2022-09-22T04:57:00.986Z,50.87
2022-09-22T04:59:29.762Z,51.05
2022-09-22T05:01:57.540Z,51.19
2022-09-22T05:04:26.108Z,50.80
2022-09-22T05:06:53.827Z,51.13
2022-09-22T05:09:21.877Z,50.86
2022-09-22T05:11:49.570Z,51.22
2022-09-22T05:14:21.580Z,50.90
2022-09-22T05:16:52.406Z,51.29
2022-09-22T05:19:21.115Z,51.25
2022-09-22T05:21:48.842Z,50.95
2022-09-22T05:24:16.583Z,51.14
2022-09-22T05:26:44.295Z,51.39
2022-09-22T05:29:12.095Z,51.36
2022-09-22T05:31:39.941Z,51.60
2022-09-22T05:34:07.748Z,51.48
2022-09-22T05:36:35.442Z,51.62
2022-09-22T05:39:03.260Z,51.88
2022-09-22T05:41:31.065Z,51.60
2022-09-22T05:43:58.796Z,51.65
2022-09-22T05:46:26.516Z,52.10
2022-09-22T05:48:54.270Z,52.24
2022-09-22T05:51:21.983Z,52.08
2022-09-22T05:53:49.794Z,51.98
2022-09-22T05:56:17.510Z,52.27
2022-09-22T05:58:47.865Z,51.90
2022-09-22T06:01:15.826Z,52.36
2022-09-22T06:03:43.632Z,52.47
2022-09-22T06:06:11.374Z,52.67
2022-09-22T06:08:39.151Z,52.43
2022-09-22T06:11:07.316Z,52.70
2022-09-22T06:13:35.825Z,52.51
2022-09-22T06:16:04.485Z,52.65
2022-09-22T06:18:33.910Z,52.70
2022-09-22T06:21:01.632Z,52.46
2022-09-22T06:23:29.469Z,52.55
2022-09-22T06:25:58.951Z,52.60
2022-09-22T06:28:26.953Z,52.68
2022-09-22T06:31:00.588Z,52.58
2022-09-22T06:33:29.259Z,52.78
2022-09-22T06:36:01.736Z,52.83
2022-09-22T06:38:32.024Z,52.74
2022-09-22T06:41:02.891Z,52.66
2022-09-22T06:43:31.073Z,52.79
2022-09-22T06:46:00.400Z,53.04
2022-09-22T06:48:28.233Z,52.77
2022-09-22T06:50:55.971Z,52.87
2022-09-22T06:53:27.241Z,53.13
2022-09-22T06:55:55.543Z,53.16
2022-09-22T06:58:23.336Z,52.73
2022-09-22T07:00:51.306Z,52.83
2022-09-22T07:03:22.894Z,52.92
2022-09-22T07:05:54.612Z,53.21
2022-09-22T07:08:24.404Z,53.13
2022-09-22T07:10:54.954Z,53.29
2022-09-22T07:13:29.718Z,53.03
2022-09-22T07:16:02.386Z,53.30
2022-09-22T07:18:30.925Z,53.23
2022-09-22T07:21:10.401Z,53.29
2022-09-22T07:23:39.196Z,53.49
2022-09-22T07:26:12.155Z,53.10
2022-09-22T07:28:40.696Z,53.04
2022-09-22T07:31:12.691Z,52.85
2022-09-22T07:33:43.423Z,53.17
2022-09-22T07:36:23.141Z,53.42
2022-09-22T07:38:53.819Z,52.97
2022-09-22T07:41:29.603Z,53.40
2022-09-22T07:44:19.416Z,52.94
2022-09-22T07:46:47.240Z,52.76
2022-09-22T07:49:15.344Z,53.21
2022-09-22T07:51:43.811Z,53.29
2022-09-22T07:54:11.959Z,53.27
2022-09-22T07:56:45.044Z,52.85
2022-09-22T07:59:16.743Z,53.11
2022-09-22T08:01:48.937Z,52.96
2022-09-22T08:04:41.351Z,52.92
2022-09-22T08:07:09.285Z,52.68
2022-09-22T08:09:37.195Z,52.88
2022-09-22T08:12:05.277Z,52.62
2022-09-22T08:14:32.990Z,52.71
2022-09-22T08:17:00.733Z,52.40
2022-09-22T08:19:30.186Z,52.04
2022-09-22T08:21:58.660Z,51.99
2022-09-22T08:24:26.401Z,51.85
2022-09-22T08:26:56.050Z,51.85
2022-09-22T08:29:24.588Z,51.71
2022-09-22T08:31:52.625Z,52.01
2022-09-22T08:34:22.517Z,51.86
2022-09-22T08:36:50.364Z,51.91
2022-09-22T08:39:18.911Z,51.97
2022-09-22T08:42:05.948Z,51.96
2022-09-22T08:44:59.901Z,51.82
2022-09-22T08:48:04.907Z,52.03
2022-09-22T08:51:11.792Z,52.02
2022-09-22T08:53:50.473Z,51.79
2022-09-22T08:56:48.511Z,51.74
2022-09-22T08:59:30.415Z,51.46
2022-09-22T09:02:30.072Z,51.46
2022-09-22T09:05:39.187Z,51.38
2022-09-22T09:08:23.057Z,50.95
2022-09-22T09:11:16.332Z,50.74
2022-09-22T09:14:26.753Z,50.97
2022-09-22T09:17:03.914Z,50.67
2022-09-22T09:20:12.495Z,50.46
2022-09-22T09:22:48.462Z,50.04
2022-09-22T09:25:42.068Z,50.31
2022-09-22T09:28:26.913Z,49.96
2022-09-22T09:31:14.199Z,49.89
2022-09-22T09:34:06.147Z,49.83
2022-09-22T09:36:42.031Z,49.25
2022-09-22T09:39:46.137Z,49.67
2022-09-22T09:42:33.260Z,49.16
2022-09-22T09:45:02.892Z,48.92
2022-09-22T09:47:59.661Z,48.93
2022-09-22T09:50:32.205Z,48.34
2022-09-22T09:53:00.499Z,48.60
2022-09-22T09:55:28.249Z,48.57
2022-09-22T09:58:11.428Z,48.49
2022-09-22T10:00:59.509Z,48.42
2022-09-22T10:03:32.853Z,48.26
2022-09-22T10:06:10.219Z,48.32
2022-09-22T10:08:51.563Z,48.19
2022-09-22T10:11:32.753Z,47.96
2022-09-22T10:14:00.796Z,47.44
2022-09-22T10:16:31.613Z,47.04
2022-09-22T10:18:59.425Z,46.97
2022-09-22T10:21:28.308Z,47.17
2022-09-22T10:23:59.538Z,46.93
2022-09-22T10:26:32.281Z,46.67
2022-09-22T10:29:21.088Z,46.78
2022-09-22T10:32:03.429Z,46.74
2022-09-22T10:34:36.872Z,46.18
2022-09-22T10:37:10.519Z,46.12
2022-09-22T10:39:49.907Z,46.05
2022-09-22T10:42:45.444Z,46.14
2022-09-22T10:45:19.451Z,45.67
2022-09-22T10:48:15.614Z,45.60
2022-09-22T10:50:49.372Z,45.02
2022-09-22T10:54:06.398Z,45.39
2022-09-22T10:56:51.792Z,44.85
2022-09-22T10:59:33.454Z,44.86
2022-09-22T11:02:39.438Z,44.82
2022-09-22T11:05:50.213Z,44.51
2022-09-22T11:08:39.174Z,44.34
2022-09-22T11:11:46.403Z,44.38
2022-09-22T11:14:55.017Z,44.42
2022-09-22T11:17:53.218Z,44.01
2022-09-22T11:20:41.867Z,43.82
2022-09-22T11:23:40.422Z,43.51
2022-09-22T11:26:44.991Z,43.36
2022-09-22T11:29:48.655Z,43.05
2022-09-22T11:32:49.727Z,42.97
2022-09-22T11:35:50.709Z,42.91
2022-09-22T11:38:55.722Z,42.73
2022-09-22T11:42:02.034Z,42.90
2022-09-22T11:44:42.226Z,41.62
2022-09-22T11:47:28.458Z,41.55
2022-09-22T11:50:35.703Z,41.63
2022-09-22T11:53:44.135Z,41.01
2022-09-22T11:56:55.577Z,41.48
2022-09-22T11:59:57.394Z,40.69
2022-09-22T12:02:54.482Z,40.59
2022-09-22T12:05:49.083Z,41.02
2022-09-22T12:08:23.137Z,40.09
2022-09-22T12:10:52.780Z,39.75
2022-09-22T12:13:28.129Z,39.63
2022-09-22T12:16:18.717Z,39.81
2022-09-22T12:19:03.267Z,39.41
2022-09-22T12:21:30.915Z,39.07
2022-09-22T12:24:07.869Z,38.63
2022-09-22T12:26:43.179Z,38.66
2022-09-22T12:29:23.602Z,38.52
2022-09-22T12:31:55.666Z,38.25
2022-09-22T12:34:34.167Z,38.22
2022-09-22T12:37:46.422Z,38.07
2022-09-22T12:40:14.075Z,37.47
2022-09-22T12:42:46.330Z,37.00
2022-09-22T12:45:20.942Z,37.02
2022-09-22T12:47:52.532Z,37.21
2022-09-22T12:50:40.578Z,37.07
2022-09-22T12:53:26.055Z,37.52
2022-09-22T12:55:56.687Z,36.15
2022-09-22T12:58:30.118Z,36.36
2022-09-22T13:01:28.950Z,37.04
2022-09-22T13:04:12.031Z,36.54
2022-09-22T13:06:39.685Z,36.39
2022-09-22T13:09:17.310Z,35.63
2022-09-22T13:12:14.667Z,35.64
2022-09-22T13:15:17.528Z,35.28
2022-09-22T13:17:51.116Z,34.83
2022-09-22T13:20:25.146Z,35.93
2022-09-22T13:22:55.692Z,34.65
2022-09-22T13:25:28.281Z,34.65
2022-09-22T13:28:20.154Z,35.14
2022-09-22T13:31:22.462Z,34.19
2022-09-22T13:33:53.521Z,33.39
2022-09-22T13:36:26.945Z,33.64
2022-09-22T13:39:03.384Z,33.10
2022-09-22T13:41:45.906Z,33.62
2022-09-22T13:44:30.606Z,33.67
2022-09-22T13:47:09.631Z,32.33
2022-09-22T13:49:48.881Z,33.08
2022-09-22T13:52:38.916Z,32.94
2022-09-22T13:55:26.289Z,32.76
2022-09-22T13:58:02.570Z,32.13
2022-09-22T14:01:11.509Z,32.63
2022-09-22T14:03:39.503Z,31.48
2022-09-22T14:06:53.879Z,31.91
2022-09-22T14:09:26.364Z,30.88
2022-09-22T14:11:56.502Z,30.54
2022-09-22T14:14:27.443Z,31.12
2022-09-22T14:17:05.983Z,31.02
2022-09-22T14:20:06.241Z,30.99
2022-09-22T14:22:43.029Z,31.00
2022-09-22T14:25:20.193Z,30.50
2022-09-22T14:27:57.910Z,30.35
2022-09-22T14:30:31.174Z,29.69
2022-09-22T14:33:03.425Z,29.98
2022-09-22T14:35:37.318Z,29.74
2022-09-22T14:38:15.526Z,29.66
2022-09-22T14:40:58.414Z,30.32
2022-09-22T14:43:42.333Z,29.28
2022-09-22T14:46:41.803Z,29.67
2022-09-22T14:49:37.535Z,29.53
2022-09-22T14:52:15.017Z,28.90
2022-09-22T14:54:44.665Z,28.81
2022-09-22T14:57:16.729Z,28.50
2022-09-22T15:00:11.958Z,28.26
2022-09-22T15:02:44.552Z,28.22
2022-09-22T15:05:30.347Z,28.57
2022-09-22T15:07:58.874Z,27.90
2022-09-22T15:10:32.345Z,28.15
2022-09-22T15:13:31.851Z,28.53
2022-09-22T15:15:59.594Z,27.60
2022-09-22T15:18:30.805Z,27.69
2022-09-22T15:21:11.196Z,28.06
2022-09-22T15:23:47.060Z,27.71
2022-09-22T15:26:24.914Z,27.57
2022-09-22T15:28:56.120Z,27.87
2022-09-22T15:31:28.457Z,27.69
2022-09-22T15:34:01.293Z,27.75
2022-09-22T15:36:32.894Z,27.61
2022-09-22T15:39:21.948Z,28.10
2022-09-22T15:41:51.990Z,27.26
2022-09-22T15:44:20.630Z,27.58
2022-09-22T15:46:52.478Z,27.22
2022-09-22T15:49:25.025Z,27.28
2022-09-22T15:51:56.006Z,27.53
2022-09-22T15:54:26.243Z,27.99
2022-09-22T15:56:56.538Z,27.30
2022-09-22T15:59:28.623Z,27.45
2022-09-22T16:01:57.497Z,27.56
2022-09-22T16:04:35.524Z,27.77
2022-09-22T16:07:12.426Z,27.75
2022-09-22T16:09:40.262Z,28.12
2022-09-22T16:12:11.086Z,27.79
2022-09-22T16:14:41.041Z,28.03
2022-09-22T16:17:08.814Z,28.16
2022-09-22T16:19:36.570Z,28.03
2022-09-22T16:22:05.916Z,28.36
2022-09-22T16:24:33.750Z,28.69
2022-09-22T16:27:04.196Z,29.01
2022-09-22T16:29:33.581Z,29.44
2022-09-22T16:32:01.556Z,28.93
2022-09-22T16:34:29.423Z,29.60
2022-09-22T16:36:57.340Z,29.28
2022-09-22T16:39:25.159Z,29.71
2022-09-22T16:41:52.853Z,29.69
2022-09-22T16:44:22.113Z,29.96
2022-09-22T16:46:49.882Z,30.17
2022-09-22T16:49:20.068Z,30.51
2022-09-22T16:51:50.542Z,30.22
2022-09-22T16:54:19.546Z,30.32
2022-09-22T16:56:50.545Z,30.74
2022-09-22T16:59:23.382Z,30.89
2022-09-22T17:01:51.426Z,31.03
2022-09-22T17:04:19.873Z,31.14
2022-09-22T17:06:48.633Z,31.32
2022-09-22T17:09:18.084Z,31.12
2022-09-22T17:11:48.690Z,31.18
2022-09-22T17:14:22.180Z,31.15
2022-09-22T17:16:55.375Z,31.63
2022-09-22T17:19:26.582Z,31.29
2022-09-22T17:21:56.603Z,31.52
2022-09-22T17:24:26.985Z,31.64
2022-09-22T17:26:58.251Z,31.78
2022-09-22T17:29:32.804Z,31.82
2022-09-22T17:32:04.398Z,31.99
2022-09-22T17:34:34.370Z,32.11
2022-09-22T17:37:03.804Z,32.32
2022-09-22T17:39:32.313Z,32.17
2022-09-22T17:42:00.178Z,32.44
2022-09-22T17:44:29.139Z,32.42
2022-09-22T17:47:15.605Z,32.56
2022-09-22T17:50:02.059Z,32.59
2022-09-22T17:52:48.685Z,32.82
2022-09-22T17:55:22.529Z,32.81
2022-09-22T17:57:52.641Z,33.02
2022-09-22T18:00:23.061Z,33.04
2022-09-22T18:02:54.286Z,33.17
2022-09-22T18:05:26.783Z,33.29
2022-09-22T18:07:58.569Z,33.42
2022-09-22T18:10:31.062Z,33.52
2022-09-22T18:12:59.770Z,33.56
2022-09-22T18:15:28.088Z,33.53
2022-09-22T18:17:58.201Z,33.64
2022-09-22T18:20:27.768Z,33.65
2022-09-22T18:22:56.079Z,33.87
2022-09-22T18:25:25.703Z,33.91
2022-09-22T18:27:55.114Z,33.80
2022-09-22T18:30:23.137Z,33.91
2022-09-22T18:32:50.978Z,33.92
2022-09-22T18:35:18.791Z,34.18
2022-09-22T18:37:46.506Z,34.04
2022-09-22T18:40:16.218Z,34.23
2022-09-22T18:42:44.598Z,33.94
2022-09-22T18:45:14.238Z,34.25
2022-09-22T18:47:43.495Z,34.33
2022-09-22T18:50:12.749Z,34.27
2022-09-22T18:52:43.201Z,34.44
2022-09-22T18:55:14.171Z,34.68
2022-09-22T18:57:42.840Z,34.79
2022-09-22T19:00:13.832Z,34.62
2022-09-22T19:02:41.837Z,34.72
2022-09-22T19:05:09.785Z,34.86
2022-09-22T19:07:41.551Z,34.85
2022-09-22T19:10:13.935Z,34.93
2022-09-22T19:12:42.806Z,35.21
2022-09-22T19:15:15.446Z,35.17
2022-09-22T19:17:45.861Z,35.26
2022-09-22T19:20:21.298Z,35.42
2022-09-22T19:22:50.534Z,35.54
2022-09-22T19:25:21.458Z,35.68
2022-09-22T19:27:52.511Z,35.96
2022-09-22T19:30:24.876Z,35.99
2022-09-22T19:32:55.512Z,35.95
2022-09-22T19:35:23.922Z,35.92
2022-09-22T19:37:52.483Z,36.23
2022-09-22T19:40:24.434Z,36.25
2022-09-22T19:42:53.268Z,36.35
2022-09-22T19:45:21.995Z,36.39
2022-09-22T19:47:49.796Z,36.57
2022-09-22T19:50:18.230Z,36.59
2022-09-22T19:52:46.130Z,36.64
2022-09-22T19:55:16.916Z,36.78
2022-09-22T19:57:46.952Z,36.68
2022-09-22T20:00:26.282Z,37.01
2022-09-22T20:02:58.771Z,37.21
2022-09-22T20:05:34.741Z,37.45
2022-09-22T20:08:07.064Z,37.44
2022-09-22T20:10:35.528Z,37.53
2022-09-22T20:13:23.336Z,37.51
2022-09-22T20:15:51.093Z,37.70
2022-09-22T20:18:22.266Z,37.89
2022-09-22T20:20:51.527Z,37.88
2022-09-22T20:23:21.690Z,38.30
2022-09-22T20:25:51.507Z,38.13
2022-09-22T20:28:19.332Z,38.18
2022-09-22T20:30:47.197Z,38.37
2022-09-22T20:33:21.552Z,38.34
2022-09-22T20:35:52.282Z,38.61
2022-09-22T20:38:20.018Z,38.52
2022-09-22T20:40:48.604Z,38.51
2022-09-22T20:43:16.657Z,38.97
2022-09-22T20:45:44.967Z,38.94
2022-09-22T20:48:18.689Z,38.72
2022-09-22T20:50:58.623Z,38.63
2022-09-22T20:53:27.238Z,38.80
2022-09-22T20:56:06.659Z,38.87
2022-09-22T20:58:40.703Z,39.25
2022-09-22T21:01:10.911Z,39.08
2022-09-22T21:03:39.315Z,39.22
2022-09-22T21:06:10.606Z,39.34
2022-09-22T21:09:01.763Z,39.02
2022-09-22T21:11:30.771Z,39.25
2022-09-22T21:14:05.773Z,39.45
2022-09-22T21:16:36.357Z,39.54
2022-09-22T21:19:04.762Z,39.68
2022-09-22T21:21:36.633Z,39.77
2022-09-22T21:24:05.543Z,39.91
2022-09-22T21:26:34.075Z,39.77
2022-09-22T21:29:01.858Z,39.94
2022-09-22T21:31:29.800Z,39.96
2022-09-22T21:33:57.620Z,40.06
2022-09-22T21:36:25.500Z,39.98
2022-09-22T21:38:59.227Z,40.14
2022-09-22T21:41:30.301Z,39.97
2022-09-22T21:43:58.265Z,40.23
2022-09-22T21:46:29.795Z,40.34
2022-09-22T21:49:01.832Z,40.42
2022-09-22T21:51:41.321Z,40.39
2022-09-22T21:54:14.176Z,40.37
2022-09-22T21:56:42.373Z,40.37
2022-09-22T21:59:12.429Z,40.64
2022-09-22T22:01:42.231Z,40.65
2022-09-22T22:04:13.874Z,40.83
2022-09-22T22:06:44.459Z,40.79
2022-09-22T22:09:24.009Z,40.67
2022-09-22T22:11:56.620Z,40.94
2022-09-22T22:14:32.643Z,41.02
2022-09-22T22:17:02.348Z,40.92
2022-09-22T22:19:30.394Z,41.29
2022-09-22T22:21:58.160Z,41.13
2022-09-22T22:24:26.015Z,41.17
2022-09-22T22:27:09.978Z,41.25
2022-09-22T22:29:41.353Z,41.17
2022-09-22T22:32:10.725Z,41.41
2022-09-22T22:34:38.721Z,41.52
2022-09-22T22:37:09.627Z,41.69
2022-09-22T22:39:38.014Z,41.76
2022-09-22T22:42:07.021Z,41.95
2022-09-22T22:44:35.339Z,41.83
2022-09-22T22:47:03.316Z,42.07
2022-09-22T22:49:31.373Z,42.05
2022-09-22T22:51:59.155Z,42.22
2022-09-22T22:54:26.880Z,42.35
2022-09-22T22:56:54.585Z,42.47
2022-09-22T22:59:22.345Z,42.79
2022-09-22T23:01:50.156Z,42.71
2022-09-22T23:04:17.944Z,42.86
2022-09-22T23:06:47.767Z,42.92
2022-09-22T23:09:17.248Z,43.21
2022-09-22T23:11:46.419Z,43.15
2022-09-22T23:14:16.341Z,43.35
2022-09-22T23:16:47.031Z,43.32
2022-09-22T23:19:17.673Z,43.38
2022-09-22T23:21:46.563Z,43.47
2022-09-22T23:24:16.941Z,43.71
2022-09-22T23:26:46.246Z,43.67
2022-09-22T23:29:14.458Z,43.70
2022-09-22T23:31:42.712Z,43.98
2022-09-22T23:34:10.530Z,43.94
2022-09-22T23:36:39.586Z,44.13
2022-09-22T23:39:07.619Z,44.02
2022-09-22T23:41:37.070Z,44.34
2022-09-22T23:44:12.245Z,44.39
2022-09-22T23:46:39.966Z,44.27
2022-09-22T23:49:07.936Z,44.57
2022-09-22T23:51:35.678Z,44.48
2022-09-22T23:54:03.476Z,44.55
2022-09-22T23:56:31.238Z,44.75
2022-09-22T23:58:58.964Z,44.54
